sensor_id;sensor_type;location;lat;lon;timestamp;pressure;altitude;pressure_sealevel;temperature;humidity
46718;BME280;32448;44.960;-0.698;2023-07-31T00:01:13;101843.84;;;15.06;100.00
46718;BME280;32448;44.960;-0.698;2023-07-31T00:03:46;101847.50;;;15.13;100.00
46718;BME280;32448;44.960;-0.698;2023-07-31T00:06:23;101847.50;;;15.13;100.00
46718;BME280;32448;44.960;-0.698;2023-07-31T00:09:00;101848.19;;;15.03;100.00
46718;BME280;32448;44.960;-0.698;2023-07-31T00:11:34;101844.59;;;14.98;100.00
46718;BME280;32448;44.960;-0.698;2023-07-31T00:14:07;101844.63;;;14.99;100.00
46718;BME280;32448;44.960;-0.698;2023-07-31T00:16:42;101843.72;;;14.97;100.00
46718;BME280;32448;44.960;-0.698;2023-07-31T00:19:17;101848.97;;;14.97;100.00
46718;BME280;32448;44.960;-0.698;2023-07-31T00:21:50;101846.28;;;14.94;100.00
46718;BME280;32448;44.960;-0.698;2023-07-31T00:24:23;101841.84;;;14.91;100.00
46718;BME280;32448;44.960;-0.698;2023-07-31T00:26:55;101836.63;;;14.93;100.00
46718;BME280;32448;44.960;-0.698;2023-07-31T00:29:32;101833.84;;;14.84;100.00
46718;BME280;32448;44.960;-0.698;2023-07-31T00:32:09;101836.34;;;14.76;100.00
46718;BME280;32448;44.960;-0.698;2023-07-31T00:34:54;101826.63;;;14.72;100.00
46718;BME280;32448;44.960;-0.698;2023-07-31T00:41:44;101820.44;;;14.69;100.00
46718;BME280;32448;44.960;-0.698;2023-07-31T00:44:17;101823.97;;;14.71;100.00
46718;BME280;32448;44.960;-0.698;2023-07-31T00:46:49;101822.19;;;14.70;100.00
46718;BME280;32448;44.960;-0.698;2023-07-31T00:49:21;101819.59;;;14.71;100.00
46718;BME280;32448;44.960;-0.698;2023-07-31T00:51:55;101814.25;;;14.65;100.00
46718;BME280;32448;44.960;-0.698;2023-07-31T00:54:29;101817.72;;;14.64;100.00
46718;BME280;32448;44.960;-0.698;2023-07-31T00:57:00;101816.75;;;14.57;100.00
46718;BME280;32448;44.960;-0.698;2023-07-31T00:59:32;101816.69;;;14.54;100.00
46718;BME280;32448;44.960;-0.698;2023-07-31T01:02:07;101807.00;;;14.52;100.00
46718;BME280;32448;44.960;-0.698;2023-07-31T01:10:21;101792.88;;;14.48;100.00
46718;BME280;32448;44.960;-0.698;2023-07-31T01:12:57;101787.59;;;14.45;100.00
46718;BME280;32448;44.960;-0.698;2023-07-31T01:15:33;101785.78;;;14.43;100.00
46718;BME280;32448;44.960;-0.698;2023-07-31T01:18:04;101797.13;;;14.40;100.00
46718;BME280;32448;44.960;-0.698;2023-07-31T01:20:45;101796.16;;;14.35;100.00
46718;BME280;32448;44.960;-0.698;2023-07-31T01:26:16;101789.84;;;14.27;100.00
46718;BME280;32448;44.960;-0.698;2023-07-31T01:31:25;101783.66;;;14.24;100.00
46718;BME280;32448;44.960;-0.698;2023-07-31T01:33:59;101786.25;;;14.22;100.00
46718;BME280;32448;44.960;-0.698;2023-07-31T01:36:31;101786.25;;;14.22;100.00
46718;BME280;32448;44.960;-0.698;2023-07-31T01:39:02;101781.84;;;14.21;100.00
46718;BME280;32448;44.960;-0.698;2023-07-31T01:41:36;101780.03;;;14.17;100.00
46718;BME280;32448;44.960;-0.698;2023-07-31T01:44:05;101775.69;;;14.19;100.00
46718;BME280;32448;44.960;-0.698;2023-07-31T01:46:35;101777.25;;;14.09;100.00
46718;BME280;32448;44.960;-0.698;2023-07-31T01:49:05;101773.66;;;14.04;100.00
46718;BME280;32448;44.960;-0.698;2023-07-31T01:51:37;101770.97;;;14.01;100.00
46718;BME280;32448;44.960;-0.698;2023-07-31T01:54:10;101778.84;;;14.00;100.00
46718;BME280;32448;44.960;-0.698;2023-07-31T01:56:40;101786.63;;;13.95;100.00
46718;BME280;32448;44.960;-0.698;2023-07-31T01:59:12;101797.00;;;13.88;100.00
46718;BME280;32448;44.960;-0.698;2023-07-31T02:01:45;101791.63;;;13.83;100.00
46718;BME280;32448;44.960;-0.698;2023-07-31T02:12:03;101802.03;;;13.77;100.00
46718;BME280;32448;44.960;-0.698;2023-07-31T02:14:38;101799.41;;;13.77;100.00
46718;BME280;32448;44.960;-0.698;2023-07-31T02:17:10;101796.84;;;13.80;100.00
46718;BME280;32448;44.960;-0.698;2023-07-31T02:19:43;101794.16;;;13.77;100.00
46718;BME280;32448;44.960;-0.698;2023-07-31T02:22:17;101795.00;;;13.76;100.00
46718;BME280;32448;44.960;-0.698;2023-07-31T02:24:53;101795.72;;;13.67;100.00
46718;BME280;32448;44.960;-0.698;2023-07-31T02:27:27;101795.63;;;13.64;100.00
46718;BME280;32448;44.960;-0.698;2023-07-31T02:30:04;101798.31;;;13.66;100.00
46718;BME280;32448;44.960;-0.698;2023-07-31T02:32:40;101793.75;;;13.59;100.00
46718;BME280;32448;44.960;-0.698;2023-07-31T02:35:17;101792.72;;;13.51;100.00
46718;BME280;32448;44.960;-0.698;2023-07-31T02:37:59;101793.63;;;13.53;100.00
46718;BME280;32448;44.960;-0.698;2023-07-31T02:40:36;101799.63;;;13.45;100.00
46718;BME280;32448;44.960;-0.698;2023-07-31T02:43:14;101803.13;;;13.46;100.00
46718;BME280;32448;44.960;-0.698;2023-07-31T02:46:02;101796.06;;;13.43;100.00
46718;BME280;32448;44.960;-0.698;2023-07-31T02:48:41;101792.63;;;13.46;100.00
46718;BME280;32448;44.960;-0.698;2023-07-31T02:51:17;101789.03;;;13.42;100.00
46718;BME280;32448;44.960;-0.698;2023-07-31T02:53:57;101789.84;;;13.40;100.00
46718;BME280;32448;44.960;-0.698;2023-07-31T02:56:32;101792.41;;;13.37;100.00
46718;BME280;32448;44.960;-0.698;2023-07-31T02:59:09;101788.94;;;13.36;100.00
46718;BME280;32448;44.960;-0.698;2023-07-31T03:01:54;101795.88;;;13.34;100.00
46718;BME280;32448;44.960;-0.698;2023-07-31T03:04:31;101787.16;;;13.37;100.00
46718;BME280;32448;44.960;-0.698;2023-07-31T03:07:10;101786.06;;;13.27;100.00
46718;BME280;32448;44.960;-0.698;2023-07-31T03:09:47;101792.16;;;13.26;100.00
46718;BME280;32448;44.960;-0.698;2023-07-31T03:12:23;101782.47;;;13.22;100.00
46718;BME280;32448;44.960;-0.698;2023-07-31T03:15:01;101772.59;;;13.12;100.00
46718;BME280;32448;44.960;-0.698;2023-07-31T03:17:37;101767.34;;;13.12;100.00
46718;BME280;32448;44.960;-0.698;2023-07-31T03:20:15;101776.88;;;13.08;100.00
46718;BME280;32448;44.960;-0.698;2023-07-31T03:22:54;101764.56;;;13.06;100.00
46718;BME280;32448;44.960;-0.698;2023-07-31T03:25:35;101760.28;;;13.09;100.00
46718;BME280;32448;44.960;-0.698;2023-07-31T03:28:11;101762.91;;;13.09;100.00
46718;BME280;32448;44.960;-0.698;2023-07-31T03:30:59;101754.03;;;13.04;100.00
46718;BME280;32448;44.960;-0.698;2023-07-31T03:33:37;101750.50;;;13.02;100.00
46718;BME280;32448;44.960;-0.698;2023-07-31T03:36:17;101756.69;;;13.06;100.00
46718;BME280;32448;44.960;-0.698;2023-07-31T03:38:55;101752.13;;;12.97;100.00
46718;BME280;32448;44.960;-0.698;2023-07-31T03:41:31;101754.75;;;12.97;100.00
46718;BME280;32448;44.960;-0.698;2023-07-31T03:44:14;101756.47;;;12.97;100.00
46718;BME280;32448;44.960;-0.698;2023-07-31T03:46:51;101760.88;;;12.98;100.00
46718;BME280;32448;44.960;-0.698;2023-07-31T03:49:26;101759.78;;;12.88;100.00
46718;BME280;32448;44.960;-0.698;2023-07-31T03:52:01;101751.00;;;12.86;100.00
46718;BME280;32448;44.960;-0.698;2023-07-31T03:54:36;101745.66;;;12.83;100.00
46718;BME280;32448;44.960;-0.698;2023-07-31T03:57:13;101751.78;;;12.84;100.00
46718;BME280;32448;44.960;-0.698;2023-07-31T03:59:50;101758.09;;;12.90;100.00
46718;BME280;32448;44.960;-0.698;2023-07-31T04:02:39;101745.75;;;12.86;100.00
46718;BME280;32448;44.960;-0.698;2023-07-31T04:05:14;101756.25;;;12.86;100.00
46718;BME280;32448;44.960;-0.698;2023-07-31T04:07:53;101762.34;;;12.85;100.00
46718;BME280;32448;44.960;-0.698;2023-07-31T04:10:30;101767.56;;;12.85;100.00
46718;BME280;32448;44.960;-0.698;2023-07-31T04:13:10;101763.38;;;12.92;100.00
46718;BME280;32448;44.960;-0.698;2023-07-31T04:15:49;101752.88;;;12.93;100.00
46718;BME280;32448;44.960;-0.698;2023-07-31T04:18:25;101745.09;;;12.96;100.00
46718;BME280;32448;44.960;-0.698;2023-07-31T04:21:01;101748.56;;;12.95;100.00
46718;BME280;32448;44.960;-0.698;2023-07-31T04:23:47;101742.44;;;12.95;100.00
46718;BME280;32448;44.960;-0.698;2023-07-31T04:26:22;101748.53;;;12.92;100.00
46718;BME280;32448;44.960;-0.698;2023-07-31T04:28:58;101744.13;;;12.91;100.00
46718;BME280;32448;44.960;-0.698;2023-07-31T04:31:36;101745.78;;;12.88;100.00
46718;BME280;32448;44.960;-0.698;2023-07-31T04:34:12;101741.25;;;12.82;100.00
46718;BME280;32448;44.960;-0.698;2023-07-31T04:36:55;101743.97;;;12.85;100.00
46718;BME280;32448;44.960;-0.698;2023-07-31T04:39:32;101751.88;;;12.87;100.00
46718;BME280;32448;44.960;-0.698;2023-07-31T04:42:09;101742.31;;;12.89;100.00
46718;BME280;32448;44.960;-0.698;2023-07-31T04:44:46;101744.13;;;12.91;100.00
46718;BME280;32448;44.960;-0.698;2023-07-31T04:47:24;101747.63;;;12.92;100.00
46718;BME280;32448;44.960;-0.698;2023-07-31T04:50:01;101761.41;;;12.83;100.00
46718;BME280;32448;44.960;-0.698;2023-07-31T04:52:36;101763.44;;;12.95;100.00
46718;BME280;32448;44.960;-0.698;2023-07-31T04:55:14;101760.69;;;12.89;100.00
46718;BME280;32448;44.960;-0.698;2023-07-31T04:57:50;101768.75;;;12.98;100.00
46718;BME280;32448;44.960;-0.698;2023-07-31T05:03:26;101774.16;;;13.05;100.00
46718;BME280;32448;44.960;-0.698;2023-07-31T05:06:00;101763.72;;;13.07;100.00
46718;BME280;32448;44.960;-0.698;2023-07-31T05:08:34;101762.81;;;13.06;100.00
46718;BME280;32448;44.960;-0.698;2023-07-31T05:11:11;101770.72;;;13.08;100.00
46718;BME280;32448;44.960;-0.698;2023-07-31T05:13:55;101765.72;;;13.17;100.00
46718;BME280;32448;44.960;-0.698;2023-07-31T05:16:37;101773.75;;;13.23;100.00
46718;BME280;32448;44.960;-0.698;2023-07-31T05:19:10;101771.13;;;13.23;100.00
46718;BME280;32448;44.960;-0.698;2023-07-31T05:21:47;101772.09;;;13.28;100.00
46718;BME280;32448;44.960;-0.698;2023-07-31T05:24:20;101766.03;;;13.31;100.00
46718;BME280;32448;44.960;-0.698;2023-07-31T05:26:53;101766.00;;;13.29;100.00
46718;BME280;32448;44.960;-0.698;2023-07-31T05:29:30;101766.06;;;13.32;100.00
46718;BME280;32448;44.960;-0.698;2023-07-31T05:32:04;101768.84;;;13.40;100.00
46718;BME280;32448;44.960;-0.698;2023-07-31T05:34:38;101768.78;;;13.35;100.00
46718;BME280;32448;44.960;-0.698;2023-07-31T05:37:11;101762.81;;;13.44;100.00
46718;BME280;32448;44.960;-0.698;2023-07-31T05:39:50;101760.41;;;13.55;100.00
46718;BME280;32448;44.960;-0.698;2023-07-31T05:42:28;101756.94;;;13.56;100.00
46718;BME280;32448;44.960;-0.698;2023-07-31T05:45:01;101748.34;;;13.64;100.00
46718;BME280;32448;44.960;-0.698;2023-07-31T05:47:34;101757.19;;;13.68;100.00
46718;BME280;32448;44.960;-0.698;2023-07-31T05:50:14;101747.63;;;13.73;100.00
46718;BME280;32448;44.960;-0.698;2023-07-31T05:52:54;101750.41;;;13.79;100.00
46718;BME280;32448;44.960;-0.698;2023-07-31T05:55:29;101747.03;;;13.86;100.00
46718;BME280;32448;44.960;-0.698;2023-07-31T05:58:06;101755.88;;;13.90;100.00
46718;BME280;32448;44.960;-0.698;2023-07-31T06:00:40;101755.22;;;14.01;100.00
46718;BME280;32448;44.960;-0.698;2023-07-31T06:03:14;101755.34;;;14.09;100.00
46718;BME280;32448;44.960;-0.698;2023-07-31T06:05:47;101744.13;;;14.19;100.00
46718;BME280;32448;44.960;-0.698;2023-07-31T06:08:20;101748.63;;;14.26;100.00
46718;BME280;32448;44.960;-0.698;2023-07-31T06:10:54;101751.53;;;14.40;100.00
46718;BME280;32448;44.960;-0.698;2023-07-31T06:13:27;101756.16;;;14.53;100.00
46718;BME280;32448;44.960;-0.698;2023-07-31T06:16:01;101755.47;;;14.65;100.00
46718;BME280;32448;44.960;-0.698;2023-07-31T06:18:37;101753.81;;;14.73;100.00
46718;BME280;32448;44.960;-0.698;2023-07-31T06:21:10;101748.69;;;14.79;100.00
46718;BME280;32448;44.960;-0.698;2023-07-31T06:23:45;101756.72;;;14.88;100.00
46718;BME280;32448;44.960;-0.698;2023-07-31T06:26:18;101767.31;;;14.94;100.00
46718;BME280;32448;44.960;-0.698;2023-07-31T06:28:53;101756.91;;;15.02;100.00
46718;BME280;32448;44.960;-0.698;2023-07-31T06:31:27;101760.47;;;15.07;100.00
46718;BME280;32448;44.960;-0.698;2023-07-31T06:34:00;101758.78;;;15.10;100.00
46718;BME280;32448;44.960;-0.698;2023-07-31T06:36:34;101766.75;;;15.16;100.00
46718;BME280;32448;44.960;-0.698;2023-07-31T06:39:09;101764.19;;;15.19;100.00
46718;BME280;32448;44.960;-0.698;2023-07-31T06:41:46;101762.50;;;15.26;100.00
46718;BME280;32448;44.960;-0.698;2023-07-31T06:44:20;101759.97;;;15.32;100.00
46718;BME280;32448;44.960;-0.698;2023-07-31T06:46:54;101762.66;;;15.37;100.00
46718;BME280;32448;44.960;-0.698;2023-07-31T06:49:28;101765.34;;;15.41;100.00
46718;BME280;32448;44.960;-0.698;2023-07-31T06:52:02;101760.19;;;15.50;100.00
46718;BME280;32448;44.960;-0.698;2023-07-31T06:54:38;101770.00;;;15.57;100.00
46718;BME280;32448;44.960;-0.698;2023-07-31T06:57:13;101764.78;;;15.63;100.00
46718;BME280;32448;44.960;-0.698;2023-07-31T06:59:52;101759.66;;;15.74;100.00
46718;BME280;32448;44.960;-0.698;2023-07-31T07:02:24;101759.81;;;15.88;100.00
46718;BME280;32448;44.960;-0.698;2023-07-31T07:04:58;101765.22;;;16.03;100.00
46718;BME280;32448;44.960;-0.698;2023-07-31T07:07:30;101752.22;;;16.20;100.00
46718;BME280;32448;44.960;-0.698;2023-07-31T07:10:07;101753.25;;;16.37;100.00
46718;BME280;32448;44.960;-0.698;2023-07-31T07:12:40;101741.94;;;16.52;100.00
46718;BME280;32448;44.960;-0.698;2023-07-31T07:15:13;101741.22;;;16.66;100.00
46718;BME280;32448;44.960;-0.698;2023-07-31T07:17:46;101745.81;;;16.93;100.00
46718;BME280;32448;44.960;-0.698;2023-07-31T07:20:19;101738.84;;;17.07;100.00
46718;BME280;32448;44.960;-0.698;2023-07-31T07:22:52;101737.22;;;17.29;100.00
46718;BME280;32448;44.960;-0.698;2023-07-31T07:25:25;101732.88;;;17.46;100.00
46718;BME280;32448;44.960;-0.698;2023-07-31T07:27:58;101733.88;;;17.67;100.00
46718;BME280;32448;44.960;-0.698;2023-07-31T07:30:35;101735.72;;;17.95;100.00
46718;BME280;32448;44.960;-0.698;2023-07-31T07:33:19;101724.25;;;18.13;100.00
46718;BME280;32448;44.960;-0.698;2023-07-31T07:35:55;101727.81;;;18.29;100.00
46718;BME280;32448;44.960;-0.698;2023-07-31T07:38:30;101731.34;;;18.47;100.00
46718;BME280;32448;44.960;-0.698;2023-07-31T07:41:05;101735.78;;;18.62;100.00
46718;BME280;32448;44.960;-0.698;2023-07-31T07:43:46;101729.59;;;18.74;100.00
46718;BME280;32448;44.960;-0.698;2023-07-31T07:46:26;101730.47;;;18.85;100.00
46718;BME280;32448;44.960;-0.698;2023-07-31T07:49:01;101725.16;;;18.97;100.00
46718;BME280;32448;44.960;-0.698;2023-07-31T07:51:40;101725.94;;;19.22;100.00
46718;BME280;32448;44.960;-0.698;2023-07-31T07:54:15;101732.06;;;19.41;100.00
46718;BME280;32448;44.960;-0.698;2023-07-31T07:56:59;101726.72;;;19.59;100.00
46718;BME280;32448;44.960;-0.698;2023-07-31T07:59:33;101718.66;;;19.77;100.00
46718;BME280;32448;44.960;-0.698;2023-07-31T08:02:08;101715.91;;;19.94;100.00
46718;BME280;32448;44.960;-0.698;2023-07-31T08:04:42;101728.13;;;20.19;100.00
46718;BME280;32448;44.960;-0.698;2023-07-31T08:07:18;101720.03;;;20.36;100.00
46718;BME280;32448;44.960;-0.698;2023-07-31T08:13:44;101706.47;;;20.66;100.00
46718;BME280;32448;44.960;-0.698;2023-07-31T08:16:13;101703.78;;;20.73;100.00
46718;BME280;32448;44.960;-0.698;2023-07-31T08:18:42;101692.97;;;20.88;100.00
46718;BME280;32448;44.960;-0.698;2023-07-31T08:21:11;101693.72;;;21.02;100.00
46718;BME280;32448;44.960;-0.698;2023-07-31T08:23:39;101694.44;;;21.21;100.00
46718;BME280;32448;44.960;-0.698;2023-07-31T08:26:08;101690.81;;;21.26;100.00
46718;BME280;32448;44.960;-0.698;2023-07-31T08:28:42;101691.66;;;21.30;100.00
46718;BME280;32448;44.960;-0.698;2023-07-31T08:31:10;101684.41;;;21.41;100.00
46718;BME280;32448;44.960;-0.698;2023-07-31T08:33:39;101687.81;;;21.52;100.00
46718;BME280;32448;44.960;-0.698;2023-07-31T08:36:10;101683.16;;;21.66;100.00
46718;BME280;32448;44.960;-0.698;2023-07-31T08:38:42;101678.41;;;21.88;100.00
46718;BME280;32448;44.960;-0.698;2023-07-31T08:41:12;101678.47;;;21.84;100.00
46718;BME280;32448;44.960;-0.698;2023-07-31T08:43:54;101677.38;;;22.00;100.00
46718;BME280;32448;44.960;-0.698;2023-07-31T08:46:38;101668.16;;;22.21;100.00
46718;BME280;32448;44.960;-0.698;2023-07-31T08:49:16;101665.16;;;22.40;100.00
46718;BME280;32448;44.960;-0.698;2023-07-31T08:51:51;101669.44;;;22.49;100.00
46718;BME280;32448;44.960;-0.698;2023-07-31T08:54:30;101664.75;;;22.63;100.00
46718;BME280;32448;44.960;-0.698;2023-07-31T08:57:13;101665.75;;;22.56;100.00
46718;BME280;32448;44.960;-0.698;2023-07-31T08:59:57;101660.34;;;22.61;100.00
46718;BME280;32448;44.960;-0.698;2023-07-31T09:06:14;101663.19;;;22.98;100.00
46718;BME280;32448;44.960;-0.698;2023-07-31T09:09:01;101666.06;;;22.88;100.00
46718;BME280;32448;44.960;-0.698;2023-07-31T09:11:30;101671.16;;;22.99;100.00
46718;BME280;32448;44.960;-0.698;2023-07-31T09:13:58;101666.50;;;23.10;100.00
46718;BME280;32448;44.960;-0.698;2023-07-31T09:16:28;101663.91;;;23.07;100.00
46718;BME280;32448;44.960;-0.698;2023-07-31T09:18:59;101666.50;;;23.10;100.00
46718;BME280;32448;44.960;-0.698;2023-07-31T09:21:29;101654.81;;;23.17;100.00
46718;BME280;32448;44.960;-0.698;2023-07-31T09:23:56;101653.41;;;23.41;100.00
46718;BME280;32448;44.960;-0.698;2023-07-31T09:26:29;101650.94;;;23.72;100.00
46718;BME280;32448;44.960;-0.698;2023-07-31T09:29:00;101646.91;;;23.91;100.00
46718;BME280;32448;44.960;-0.698;2023-07-31T09:31:32;101651.16;;;24.00;100.00
46718;BME280;32448;44.960;-0.698;2023-07-31T09:34:00;101649.50;;;23.96;100.00
46718;BME280;32448;44.960;-0.698;2023-07-31T09:36:30;101645.13;;;23.92;100.00
46718;BME280;32448;44.960;-0.698;2023-07-31T09:39:05;101641.97;;;24.12;100.00
46718;BME280;32448;44.960;-0.698;2023-07-31T09:41:43;101636.66;;;24.46;100.00
46718;BME280;32448;44.960;-0.698;2023-07-31T09:44:11;101640.69;;;24.62;100.00
46718;BME280;32448;44.960;-0.698;2023-07-31T09:46:39;101633.34;;;24.68;100.00
46718;BME280;32448;44.960;-0.698;2023-07-31T09:49:11;101634.69;;;24.85;100.00
46718;BME280;32448;44.960;-0.698;2023-07-31T09:51:40;101624.44;;;25.00;100.00
46718;BME280;32448;44.960;-0.698;2023-07-31T09:54:11;101621.66;;;25.34;100.00
46718;BME280;32448;44.960;-0.698;2023-07-31T09:56:46;101613.81;;;25.56;100.00
46718;BME280;32448;44.960;-0.698;2023-07-31T09:59:20;101610.47;;;25.50;100.00
46718;BME280;32448;44.960;-0.698;2023-07-31T10:01:52;101610.47;;;25.78;100.00
46718;BME280;32448;44.960;-0.698;2023-07-31T10:04:27;101602.69;;;25.70;100.00
46718;BME280;32448;44.960;-0.698;2023-07-31T10:07:14;101603.06;;;25.86;100.00
46718;BME280;32448;44.960;-0.698;2023-07-31T10:09:44;101601.34;;;25.85;100.00
46718;BME280;32448;44.960;-0.698;2023-07-31T10:12:16;101598.22;;;25.70;100.00
46718;BME280;32448;44.960;-0.698;2023-07-31T10:18:39;101593.72;;;25.43;100.00
46718;BME280;32448;44.960;-0.698;2023-07-31T10:21:33;101590.41;;;25.63;100.00
46718;BME280;32448;44.960;-0.698;2023-07-31T10:24:14;101581.91;;;25.78;100.00
46718;BME280;32448;44.960;-0.698;2023-07-31T10:26:49;101574.66;;;25.82;100.00
46718;BME280;32448;44.960;-0.698;2023-07-31T10:29:25;101576.03;;;25.93;100.00
46718;BME280;32448;44.960;-0.698;2023-07-31T10:32:02;101575.44;;;26.10;100.00
46718;BME280;32448;44.960;-0.698;2023-07-31T10:34:41;101579.78;;;25.61;100.00
46718;BME280;32448;44.960;-0.698;2023-07-31T10:37:35;101567.53;;;25.81;100.00
46718;BME280;32448;44.960;-0.698;2023-07-31T10:40:12;101573.91;;;26.03;100.00
46718;BME280;32448;44.960;-0.698;2023-07-31T10:42:55;101559.72;;;26.26;100.00
46718;BME280;32448;44.960;-0.698;2023-07-31T10:45:38;101556.00;;;26.55;100.00
46718;BME280;32448;44.960;-0.698;2023-07-31T10:51:51;101560.72;;;26.96;100.00
46718;BME280;32448;44.960;-0.698;2023-07-31T10:54:28;101552.88;;;26.90;100.00
46718;BME280;32448;44.960;-0.698;2023-07-31T10:57:07;101557.44;;;27.11;100.00
46718;BME280;32448;44.960;-0.698;2023-07-31T11:00:16;101562.84;;;27.33;100.00
46718;BME280;32448;44.960;-0.698;2023-07-31T11:07:19;101546.50;;;27.39;100.00
46718;BME280;32448;44.960;-0.698;2023-07-31T11:09:57;101545.69;;;27.59;100.00
46718;BME280;32448;44.960;-0.698;2023-07-31T11:12:33;101547.78;;;27.51;100.00
46718;BME280;32448;44.960;-0.698;2023-07-31T11:15:06;101544.03;;;27.77;100.00
46718;BME280;32448;44.960;-0.698;2023-07-31T11:21:33;101535.00;;;27.79;100.00
46718;BME280;32448;44.960;-0.698;2023-07-31T11:24:08;101532.19;;;28.03;100.00
46718;BME280;32448;44.960;-0.698;2023-07-31T11:26:51;101528.53;;;28.25;100.00
46718;BME280;32448;44.960;-0.698;2023-07-31T11:29:30;101529.91;;;28.14;100.00
46718;BME280;32448;44.960;-0.698;2023-07-31T11:35:07;101534.59;;;28.09;100.00
46718;BME280;32448;44.960;-0.698;2023-07-31T11:37:41;101529.22;;;27.88;100.00
46718;BME280;32448;44.960;-0.698;2023-07-31T11:40:18;101518.06;;;27.98;100.00
46718;BME280;32448;44.960;-0.698;2023-07-31T11:43:17;101510.94;;;28.17;100.00
46718;BME280;32448;44.960;-0.698;2023-07-31T11:45:57;101508.91;;;28.23;100.00
46718;BME280;32448;44.960;-0.698;2023-07-31T11:52:27;101512.22;;;28.49;100.00
46718;BME280;32448;44.960;-0.698;2023-07-31T11:55:05;101509.16;;;28.38;100.00
46718;BME280;32448;44.960;-0.698;2023-07-31T11:57:59;101500.53;;;28.69;100.00
46718;BME280;32448;44.960;-0.698;2023-07-31T12:04:26;101498.25;;;28.80;100.00
46718;BME280;32448;44.960;-0.698;2023-07-31T12:11:01;101487.13;;;28.87;100.00
46718;BME280;32448;44.960;-0.698;2023-07-31T12:17:00;101493.19;;;28.72;100.00
46718;BME280;32448;44.960;-0.698;2023-07-31T12:19:34;101487.22;;;28.66;100.00
46718;BME280;32448;44.960;-0.698;2023-07-31T12:22:26;101486.66;;;28.59;100.00
46718;BME280;32448;44.960;-0.698;2023-07-31T12:29:36;101474.66;;;28.85;100.00
46718;BME280;32448;44.960;-0.698;2023-07-31T12:36:03;101465.06;;;28.98;100.00
46718;BME280;32448;44.960;-0.698;2023-07-31T12:38:54;101465.88;;;29.00;100.00
46718;BME280;32448;44.960;-0.698;2023-07-31T12:41:29;101447.56;;;29.07;100.00
46718;BME280;32448;44.960;-0.698;2023-07-31T12:44:02;101458.16;;;29.28;100.00
46718;BME280;32448;44.960;-0.698;2023-07-31T12:46:39;101460.78;;;29.30;100.00
46718;BME280;32448;44.960;-0.698;2023-07-31T12:49:16;101450.47;;;29.21;100.00
46718;BME280;32448;44.960;-0.698;2023-07-31T12:51:50;101452.28;;;29.20;100.00
46718;BME280;32448;44.960;-0.698;2023-07-31T12:54:26;101456.41;;;29.27;100.00
46718;BME280;32448;44.960;-0.698;2023-07-31T12:57:00;101461.06;;;29.43;100.00
46718;BME280;32448;44.960;-0.698;2023-07-31T12:59:43;101450.31;;;29.24;100.00
46718;BME280;32448;44.960;-0.698;2023-07-31T13:02:14;101452.88;;;29.27;100.00
46718;BME280;32448;44.960;-0.698;2023-07-31T13:05:10;101445.41;;;29.32;100.00
46718;BME280;32448;44.960;-0.698;2023-07-31T13:08:00;101446.69;;;29.25;100.00
46718;BME280;32448;44.960;-0.698;2023-07-31T13:10:58;101458.34;;;29.25;100.00
46718;BME280;32448;44.960;-0.698;2023-07-31T13:14:12;101447.06;;;28.81;100.00
46718;BME280;32448;44.960;-0.698;2023-07-31T13:17:32;101442.38;;;29.21;100.00
46718;BME280;32448;44.960;-0.698;2023-07-31T13:20:38;101439.88;;;29.35;100.00
46718;BME280;32448;44.960;-0.698;2023-07-31T13:27:41;101434.94;;;29.45;100.00
46718;BME280;32448;44.960;-0.698;2023-07-31T13:30:21;101435.56;;;29.50;100.00
46718;BME280;32448;44.960;-0.698;2023-07-31T13:40:19;101446.09;;;29.18;100.00
46718;BME280;32448;44.960;-0.698;2023-07-31T13:42:53;101440.91;;;28.96;100.00
46718;BME280;32448;44.960;-0.698;2023-07-31T13:45:33;101440.75;;;29.00;100.00
46718;BME280;32448;44.960;-0.698;2023-07-31T13:48:06;101447.03;;;29.17;100.00
46718;BME280;32448;44.960;-0.698;2023-07-31T13:50:41;101438.22;;;29.32;100.00
46718;BME280;32448;44.960;-0.698;2023-07-31T13:53:19;101431.69;;;29.19;100.00
46718;BME280;32448;44.960;-0.698;2023-07-31T13:55:52;101439.84;;;29.54;100.00
46718;BME280;32448;44.960;-0.698;2023-07-31T13:58:26;101428.44;;;29.66;100.00
46718;BME280;32448;44.960;-0.698;2023-07-31T14:01:11;101417.00;;;29.61;100.00
46718;BME280;32448;44.960;-0.698;2023-07-31T14:13:31;101405.81;;;29.34;100.00
46718;BME280;32448;44.960;-0.698;2023-07-31T14:16:20;101411.16;;;29.53;100.00
46718;BME280;32448;44.960;-0.698;2023-07-31T14:50:10;101412.03;;;29.53;100.00
46718;BME280;32448;44.960;-0.698;2023-07-31T14:52:37;101403.78;;;29.56;100.00
46718;BME280;32448;44.960;-0.698;2023-07-31T14:55:04;101406.78;;;29.50;100.00
46718;BME280;32448;44.960;-0.698;2023-07-31T14:57:32;101407.44;;;29.38;100.00
46718;BME280;32448;44.960;-0.698;2023-07-31T14:59:59;101406.72;;;29.52;100.00
46718;BME280;32448;44.960;-0.698;2023-07-31T15:02:26;101414.88;;;29.50;100.00
46718;BME280;32448;44.960;-0.698;2023-07-31T15:04:54;101412.34;;;29.47;100.00
46718;BME280;32448;44.960;-0.698;2023-07-31T15:07:21;101405.84;;;29.51;100.00
46718;BME280;32448;44.960;-0.698;2023-07-31T15:09:48;101405.94;;;29.67;100.00
46718;BME280;32448;44.960;-0.698;2023-07-31T15:12:15;101419.56;;;29.64;100.00
46718;BME280;32448;44.960;-0.698;2023-07-31T15:14:42;101417.00;;;29.61;100.00
46718;BME280;32448;44.960;-0.698;2023-07-31T15:17:10;101401.31;;;29.34;100.00
46718;BME280;32448;44.960;-0.698;2023-07-31T15:19:37;101403.31;;;29.48;100.00
46718;BME280;32448;44.960;-0.698;2023-07-31T15:22:04;101411.34;;;29.31;100.00
46718;BME280;32448;44.960;-0.698;2023-07-31T15:24:31;101406.13;;;29.28;100.00